Terminal Aerodrome Forecast
Issued by NWS Blacksburg, VA

Current Version | Previous Version | Text Only | Print | Product List | Glossary Off
Versions: 1 2 3 4 5 6 7 8 9 10 11 12 13 14 15 16 17 18 19 20 21 22 23 24 25 26 27 28 29 30 31 32 33 34

799
FTUS41 KRNK 271025 AAB
TAFBLF
TAF AMD
KBLF 271025Z 2710/2806 00000KT 2SM BR OVC003
      TEMPO 2710/2712 1/2SM FG
     FM271400 25010KT P6SM OVC040
     FM271800 26009KT P6SM VCTS OVC035CB
      TEMPO 2719/2721 3SM TSRA BR OVC015CB
     FM280200 23005KT P6SM BKN100=

USA.gov is the U.S. government's official web portal to all federal, state and local government web resources and services.